createdAt,value
2023-04-11T00:00:06.769Z,98228.94
2023-04-11T00:02:13.156Z,98213.53
2023-04-11T00:04:15.204Z,98210.28
2023-04-11T00:06:16.706Z,98197.63
2023-04-11T00:08:18.105Z,98195.97
2023-04-11T00:10:19.796Z,98201.47
2023-04-11T00:12:21.315Z,98197.09
2023-04-11T00:14:23.496Z,98198.72
2023-04-11T00:16:26.811Z,98200.69
2023-04-11T00:18:28.392Z,98198.22
2023-04-11T00:20:30.610Z,98202.09
2023-04-11T00:22:34.168Z,98200.97
2023-04-11T00:24:35.945Z,98193.53
2023-04-11T00:26:37.667Z,98187.19
2023-04-11T00:28:39.185Z,98193.53
2023-04-11T00:30:40.827Z,98183.34
2023-04-11T00:32:42.681Z,98171.50
2023-04-11T00:34:47.253Z,98158.56
2023-04-11T00:36:48.954Z,98146.72
2023-04-11T00:38:50.640Z,98160.50
2023-04-11T00:40:52.284Z,98156.41
2023-04-11T00:42:56.098Z,98156.09
2023-04-11T00:44:57.647Z,98147.84
2023-04-11T00:47:01.299Z,98137.97
2023-04-11T00:49:03.259Z,98139.06
2023-04-11T00:51:05.295Z,98144.56
2023-04-11T00:53:08.400Z,98151.22
2023-04-11T00:55:11.486Z,98159.47
2023-04-11T00:57:13.296Z,98170.19
2023-04-11T00:59:14.864Z,98172.09
2023-04-11T01:01:16.730Z,98148.47
2023-04-11T01:03:21.932Z,98161.09
2023-04-11T01:05:23.809Z,98151.72
2023-04-11T01:07:25.993Z,98164.34
2023-04-11T01:09:28.677Z,98186.59
2023-04-11T01:11:30.746Z,98194.88
2023-04-11T01:13:34.400Z,98204.78
2023-04-11T01:15:36.125Z,98206.38
2023-04-11T01:17:40.255Z,98191.50
2023-04-11T01:19:44.338Z,98176.63
2023-04-11T01:21:48.276Z,98178.25
2023-04-11T01:23:52.598Z,98172.97
2023-04-11T01:25:54.427Z,98165.50
2023-04-11T01:27:57.179Z,98162.47
2023-04-11T01:29:58.801Z,98175.94
2023-04-11T01:32:00.351Z,98181.94
2023-04-11T01:34:03.133Z,98181.66
2023-04-11T01:36:05.151Z,98179.72
2023-04-11T01:38:07.002Z,98168.41
2023-04-11T01:40:09.544Z,98157.06
2023-04-11T01:42:15.248Z,98160.66
2023-04-11T01:44:17.471Z,98168.63
2023-04-11T01:46:19.658Z,98169.41
2023-04-11T01:48:21.233Z,98171.88
2023-04-11T01:50:32.672Z,98162.47
2023-04-11T01:52:34.190Z,98174.31
2023-04-11T01:54:38.199Z,98167.72
2023-04-11T01:56:41.169Z,98146.50
2023-04-11T01:58:42.818Z,98157.50
2023-04-11T02:00:44.604Z,98153.63
2023-04-11T02:02:46.714Z,98155.25
2023-04-11T02:04:48.644Z,98162.38
2023-04-11T02:06:50.225Z,98161.59
2023-04-11T02:08:54.944Z,98155.78
2023-04-11T02:10:56.728Z,98155.78
2023-04-11T02:12:58.589Z,98151.09
2023-04-11T02:15:00.220Z,98149.16
2023-04-11T02:17:04.868Z,98134.84
2023-04-11T02:19:08.349Z,98136.50
2023-04-11T02:21:10.614Z,98126.59
2023-04-11T02:23:12.835Z,98130.97
2023-04-11T02:25:14.678Z,98123.81
2023-04-11T02:27:16.754Z,98122.22
2023-04-11T02:29:20.793Z,98120.28
2023-04-11T02:31:27.324Z,98118.31
2023-04-11T02:33:29.320Z,98118.31
2023-04-11T02:35:33.723Z,98123.03
2023-04-11T02:37:37.539Z,98132.41
2023-04-11T02:39:39.228Z,98132.09
2023-04-11T02:41:47.066Z,98127.72
2023-04-11T02:43:48.690Z,98134.06
2023-04-11T02:45:52.443Z,98123.81
2023-04-11T02:47:58.775Z,98121.38
2023-04-11T02:50:00.819Z,98117.53
2023-04-11T02:52:07.105Z,98110.38
2023-04-11T02:54:08.762Z,98105.69
2023-04-11T02:56:13.198Z,98100.19
2023-04-11T02:58:17.683Z,98095.50
2023-04-11T03:00:20.433Z,98089.44
2023-04-11T03:02:29.910Z,98091.41
2023-04-11T03:04:31.996Z,98091.41
2023-04-11T03:06:42.047Z,98098.84
2023-04-11T03:08:43.741Z,98077.63
2023-04-11T03:10:45.320Z,98097.72
2023-04-11T03:12:46.978Z,98108.72
2023-04-11T03:14:51.160Z,98113.13
2023-04-11T03:16:54.977Z,98114.22
2023-04-11T03:18:59.590Z,98111.47
2023-04-11T03:21:01.320Z,98100.47
2023-04-11T03:23:03.512Z,98090.28
2023-04-11T03:25:09.305Z,98089.44
2023-04-11T03:27:11.065Z,98078.44
2023-04-11T03:29:16.522Z,98078.13
2023-04-11T03:31:32.136Z,98083.94
2023-04-11T03:33:33.758Z,98087.50
2023-04-11T03:35:36.373Z,98096.91
2023-04-11T03:37:37.902Z,98106.28
2023-04-11T03:39:39.804Z,98110.97
2023-04-11T03:41:41.762Z,98092.84
2023-04-11T03:43:45.540Z,98093.63
2023-04-11T03:45:47.245Z,98104.63
2023-04-11T03:47:57.618Z,98103.03
2023-04-11T03:50:07.043Z,98111.28
2023-04-11T03:52:15.153Z,98108.53
2023-04-11T03:54:19.097Z,98108.31
2023-04-11T03:56:29.824Z,98109.75
2023-04-11T03:58:34.634Z,98104.56
2023-04-11T04:00:36.442Z,98101.28
2023-04-11T04:02:43.180Z,98099.66
2023-04-11T04:04:58.623Z,98105.97
2023-04-11T04:07:09.985Z,98097.22
2023-04-11T04:09:15.556Z,98082.91
2023-04-11T04:11:22.718Z,98089.84
2023-04-11T04:13:24.908Z,98089.84
2023-04-11T04:15:47.441Z,98096.75
2023-04-11T04:17:51.448Z,98103.41
2023-04-11T04:20:01.218Z,98113.91
2023-04-11T04:22:03.879Z,98114.19
2023-04-11T04:24:12.286Z,98104.59
2023-04-11T04:26:35.061Z,98101.34
2023-04-11T04:28:47.936Z,98089.81
2023-04-11T04:30:58.239Z,98090.94
2023-04-11T04:33:05.096Z,98081.56
2023-04-11T04:35:08.900Z,98095.03
2023-04-11T04:37:22.056Z,98094.19
2023-04-11T04:39:30.152Z,98093.09
2023-04-11T04:41:37.321Z,98090.34
2023-04-11T04:43:42.056Z,98100.25
2023-04-11T04:45:49.010Z,98114.78
2023-04-11T04:47:55.904Z,98119.50
2023-04-11T04:49:57.493Z,98139.28
2023-04-11T04:51:59.174Z,98146.41
2023-04-11T04:54:00.865Z,98159.91
2023-04-11T04:56:02.516Z,98173.94
2023-04-11T04:58:06.864Z,98172.94
2023-04-11T05:00:11.497Z,98172.94
2023-04-11T05:02:19.040Z,98182.91
2023-04-11T05:04:21.619Z,98179.41
2023-04-11T05:06:31.969Z,98183.88
2023-04-11T05:08:35.356Z,98201.28
2023-04-11T05:10:40.772Z,98195.03
2023-04-11T05:12:44.972Z,98192.09
2023-04-11T05:14:47.848Z,98197.06
2023-04-11T05:16:49.594Z,98198.78
2023-04-11T05:18:53.836Z,98193.56
2023-04-11T05:20:55.293Z,98200.16
2023-04-11T05:22:59.827Z,98206.75
2023-04-11T05:25:02.330Z,98207.06
2023-04-11T05:27:04.001Z,98208.19
2023-04-11T05:29:06.662Z,98215.63
2023-04-11T05:31:08.955Z,98231.31
2023-04-11T05:33:12.754Z,98231.31
2023-04-11T05:35:16.824Z,98228.06
2023-04-11T05:37:27.709Z,98239.84
2023-04-11T05:39:29.221Z,98233.56
2023-04-11T05:41:31.641Z,98245.66
2023-04-11T05:43:33.599Z,98256.66
2023-04-11T05:45:42.214Z,98253.91
2023-04-11T05:47:43.775Z,98244.00
2023-04-11T05:49:45.555Z,98241.25
2023-04-11T05:51:47.053Z,98241.56
2023-04-11T05:53:50.457Z,98240.75
2023-04-11T05:55:52.534Z,98242.41
2023-04-11T05:57:53.982Z,98246.25
2023-04-11T05:59:55.434Z,98231.66
2023-04-11T06:01:57.934Z,98221.81
2023-04-11T06:03:59.822Z,98218.22
2023-04-11T06:06:01.646Z,98217.13
2023-04-11T06:08:06.715Z,98224.25
2023-04-11T06:10:09.639Z,98221.50
2023-04-11T06:12:14.616Z,98225.91
2023-04-11T06:14:16.132Z,98222.31
2023-04-11T06:16:18.061Z,98235.25
2023-04-11T06:18:19.736Z,98240.47
2023-04-11T06:20:23.548Z,98241.56
2023-04-11T06:22:24.984Z,98242.41
2023-04-11T06:24:40.523Z,98241.06
2023-04-11T06:26:42.389Z,98230.88
2023-04-11T06:28:43.971Z,98227.00
2023-04-11T06:30:45.800Z,98233.63
2023-04-11T06:32:47.304Z,98228.13
2023-04-11T06:34:48.732Z,98241.88
2023-04-11T06:36:50.187Z,98246.25
2023-04-11T06:38:51.735Z,98244.63
2023-04-11T06:40:54.560Z,98252.34
2023-04-11T06:43:00.940Z,98250.72
2023-04-11T06:45:02.574Z,98246.84
2023-04-11T06:47:04.288Z,98247.66
2023-04-11T06:49:07.222Z,98237.47
2023-04-11T06:51:10.455Z,98233.63
2023-04-11T06:53:13.187Z,98225.66
2023-04-11T06:55:15.431Z,98193.78
2023-04-11T06:57:18.113Z,98207.00
2023-04-11T06:59:20.505Z,98224.63
2023-04-11T07:01:25.584Z,98225.44
2023-04-11T07:03:29.346Z,98233.97
2023-04-11T07:05:31.130Z,98239.28
2023-04-11T07:07:32.520Z,98239.28
2023-04-11T07:09:34.147Z,98243.13
2023-04-11T07:11:38.658Z,98240.69
2023-04-11T07:13:40.230Z,98238.22
2023-04-11T07:15:41.757Z,98245.88
2023-04-11T07:17:43.494Z,98248.63
2023-04-11T07:19:48.344Z,98249.44
2023-04-11T07:21:49.823Z,98256.28
2023-04-11T07:23:52.769Z,98266.16
2023-04-11T07:25:54.779Z,98268.63
2023-04-11T07:27:56.717Z,98263.97
2023-04-11T07:29:58.613Z,98271.06
2023-04-11T07:32:00.311Z,98278.22
2023-04-11T07:34:04.841Z,98276.81
2023-04-11T07:36:07.113Z,98277.66
2023-04-11T07:38:10.215Z,98291.91
2023-04-11T07:40:15.471Z,98298.75
2023-04-11T07:42:17.033Z,98292.94
2023-04-11T07:44:20.846Z,98284.13
2023-04-11T07:46:22.321Z,98292.34
2023-04-11T07:48:26.271Z,98298.88
2023-04-11T07:50:27.870Z,98306.53
2023-04-11T07:52:29.366Z,98300.44
2023-04-11T07:54:30.918Z,98304.22
2023-04-11T07:56:32.607Z,98307.53
2023-04-11T07:58:34.056Z,98306.41
2023-04-11T08:00:36.138Z,98308.25
2023-04-11T08:02:43.906Z,98301.13
2023-04-11T08:04:45.852Z,98306.25
2023-04-11T08:06:47.447Z,98301.22
2023-04-11T08:08:50.070Z,98293.41
2023-04-11T08:10:54.259Z,98298.22
2023-04-11T08:12:58.607Z,98302.53
2023-04-11T08:15:00.720Z,98303.50
2023-04-11T08:17:02.623Z,98305.56
2023-04-11T08:19:04.302Z,98299.06
2023-04-11T08:21:07.431Z,98295.09
2023-04-11T08:23:10.417Z,98294.72
2023-04-11T08:25:13.750Z,98295.75
2023-04-11T08:27:15.504Z,98296.78
2023-04-11T08:29:17.266Z,98304.19
2023-04-11T08:31:19.499Z,98301.09
2023-04-11T08:33:24.491Z,98292.25
2023-04-11T08:35:26.283Z,98298.25
2023-04-11T08:37:28.237Z,98292.75
2023-04-11T08:39:29.802Z,98294.09
2023-04-11T08:41:32.281Z,98292.97
2023-04-11T08:43:39.989Z,98290.50
2023-04-11T08:45:42.125Z,98293.47
2023-04-11T08:47:45.599Z,98288.69
2023-04-11T08:49:47.572Z,98290.22
2023-04-11T08:51:53.855Z,98293.69
2023-04-11T08:53:58.187Z,98299.94
2023-04-11T08:56:00.041Z,98306.69
2023-04-11T08:58:02.936Z,98299.66
2023-04-11T09:00:19.153Z,98296.19
2023-04-11T09:02:21.356Z,98309.06
2023-04-11T09:04:39.323Z,98302.94
2023-04-11T09:06:55.562Z,98323.47
2023-04-11T09:09:02.020Z,98306.81
2023-04-11T09:11:03.768Z,98299.53
2023-04-11T09:13:27.433Z,98299.16
2023-04-11T09:15:31.840Z,98300.38
2023-04-11T09:17:41.405Z,98298.50
2023-04-11T09:19:42.984Z,98296.63
2023-04-11T09:21:50.514Z,98296.22
2023-04-11T09:23:52.115Z,98294.78
2023-04-11T09:25:53.613Z,98292.53
2023-04-11T09:28:12.055Z,98294.78
2023-04-11T09:30:24.352Z,98294.28
2023-04-11T09:32:34.199Z,98289.69
2023-04-11T09:34:37.836Z,98286.13
2023-04-11T09:36:40.841Z,98281.59
2023-04-11T09:38:44.036Z,98281.97
2023-04-11T09:40:45.786Z,98269.56
2023-04-11T09:42:48.665Z,98270.94
2023-04-11T09:44:50.597Z,98276.56
2023-04-11T09:46:59.617Z,98276.31
2023-04-11T09:49:01.804Z,98280.78
2023-04-11T09:51:08.121Z,98275.53
2023-04-11T09:53:12.704Z,98277.38
2023-04-11T09:55:20.410Z,98278.25
2023-04-11T09:57:25.388Z,98278.59
2023-04-11T09:59:27.660Z,98284.00
2023-04-11T10:01:29.293Z,98281.59
2023-04-11T10:03:34.925Z,98282.75
2023-04-11T10:05:40.391Z,98283.31
2023-04-11T10:07:57.012Z,98289.38
2023-04-11T10:09:58.658Z,98285.38
2023-04-11T10:12:00.558Z,98269.78
2023-04-11T10:14:02.181Z,98272.41
2023-04-11T10:16:24.150Z,98275.53
2023-04-11T10:18:25.987Z,98271.47
2023-04-11T10:20:40.436Z,98267.56
2023-04-11T10:22:43.115Z,98260.41
2023-04-11T10:25:18.472Z,98268.56
2023-04-11T10:27:47.228Z,98264.50
2023-04-11T10:29:51.681Z,98280.94
2023-04-11T10:32:08.645Z,98277.03
2023-04-11T10:34:14.518Z,98282.28
2023-04-11T10:36:16.304Z,98277.03
2023-04-11T10:38:36.744Z,98269.38
2023-04-11T10:41:16.660Z,98282.09
2023-04-11T10:43:21.691Z,98276.56
2023-04-11T10:45:28.061Z,98278.03
2023-04-11T10:47:29.774Z,98276.06
2023-04-11T10:49:37.397Z,98274.44
2023-04-11T10:51:38.997Z,98272.66
2023-04-11T10:53:40.977Z,98268.25
2023-04-11T10:55:50.604Z,98270.50
2023-04-11T10:58:15.568Z,98281.59
2023-04-11T11:00:20.231Z,98281.44
2023-04-11T11:02:26.447Z,98284.03
2023-04-11T11:04:36.292Z,98303.91
2023-04-11T11:06:47.494Z,98317.94
2023-04-11T11:08:56.525Z,98302.75
2023-04-11T11:11:02.034Z,98311.41
2023-04-11T11:13:04.309Z,98307.50
2023-04-11T11:15:20.882Z,98311.91
2023-04-11T11:17:23.767Z,98309.78
2023-04-11T11:19:25.621Z,98305.53
2023-04-11T11:21:28.815Z,98311.56
2023-04-11T11:23:30.906Z,98314.81
2023-04-11T11:25:32.844Z,98305.00
2023-04-11T11:27:34.959Z,98305.19
2023-04-11T11:29:37.876Z,98298.81
2023-04-11T11:31:45.581Z,98294.75
2023-04-11T11:33:47.340Z,98297.94
2023-04-11T11:36:08.775Z,98303.97
2023-04-11T11:38:10.348Z,98297.38
2023-04-11T11:40:14.869Z,98321.53
2023-04-11T11:42:16.821Z,98313.00
2023-04-11T11:44:29.555Z,98314.63
2023-04-11T11:46:33.894Z,98326.53
2023-04-11T11:48:35.550Z,98319.03
2023-04-11T11:50:37.058Z,98323.44
2023-04-11T11:52:41.251Z,98334.69
2023-04-11T11:54:44.352Z,98332.06
2023-04-11T11:56:52.645Z,98333.50
2023-04-11T11:58:54.341Z,98342.19
2023-04-11T12:00:56.318Z,98338.38
2023-04-11T12:02:59.995Z,98358.47
2023-04-11T12:05:04.962Z,98344.84
2023-04-11T12:07:12.261Z,98340.25
2023-04-11T12:09:13.805Z,98350.03
2023-04-11T12:11:16.712Z,98357.34
2023-04-11T12:13:23.749Z,98348.00
2023-04-11T12:15:26.062Z,98342.59
2023-04-11T12:17:38.032Z,98348.25
2023-04-11T12:19:42.348Z,98346.25
2023-04-11T12:21:44.044Z,98349.16
2023-04-11T12:23:45.799Z,98346.19
2023-04-11T12:25:47.843Z,98356.63
2023-04-11T12:27:49.502Z,98365.59
2023-04-11T12:29:53.545Z,98355.78
2023-04-11T12:31:55.202Z,98368.19
2023-04-11T12:33:57.252Z,98369.38
2023-04-11T12:35:59.105Z,98370.84
2023-04-11T12:38:00.665Z,98369.03
2023-04-11T12:40:07.060Z,98367.28
2023-04-11T12:42:16.742Z,98359.97
2023-04-11T12:44:20.569Z,98347.19
2023-04-11T12:46:25.012Z,98348.00
2023-04-11T12:48:26.820Z,98354.41
2023-04-11T12:50:28.411Z,98352.09
2023-04-11T12:52:30.548Z,98352.22
2023-04-11T12:54:32.283Z,98343.53
2023-04-11T12:56:34.082Z,98342.88
2023-04-11T12:58:35.776Z,98335.44
2023-04-11T13:00:37.199Z,98336.25
2023-04-11T13:02:43.793Z,98336.72
2023-04-11T13:04:48.490Z,98343.56
2023-04-11T13:06:52.359Z,98330.78
2023-04-11T13:08:54.042Z,98350.25
2023-04-11T13:10:56.058Z,98346.88
2023-04-11T13:13:00.570Z,98350.63
2023-04-11T13:15:04.969Z,98348.16
2023-04-11T13:17:06.595Z,98351.16
2023-04-11T13:19:08.117Z,98344.19
2023-04-11T13:21:09.659Z,98357.47
2023-04-11T13:23:11.527Z,98360.00
2023-04-11T13:25:13.363Z,98363.81
2023-04-11T13:27:14.994Z,98367.75
2023-04-11T13:29:16.480Z,98371.75
2023-04-11T13:31:19.429Z,98386.88
2023-04-11T13:33:21.149Z,98401.16
2023-04-11T13:35:23.881Z,98392.75
2023-04-11T13:37:26.632Z,98397.75
2023-04-11T13:39:28.182Z,98392.28
2023-04-11T13:41:29.814Z,98388.41
2023-04-11T13:43:31.437Z,98385.34
2023-04-11T13:45:35.502Z,98386.72
2023-04-11T13:47:38.782Z,98383.16
2023-04-11T13:49:40.888Z,98374.53
2023-04-11T13:51:42.460Z,98380.75
2023-04-11T13:53:48.911Z,98368.00
2023-04-11T13:55:51.266Z,98368.00
2023-04-11T13:57:54.049Z,98366.88
2023-04-11T13:59:55.940Z,98361.78
2023-04-11T14:01:57.559Z,98359.50
2023-04-11T14:03:59.394Z,98367.97
2023-04-11T14:06:04.517Z,98359.00
2023-04-11T14:08:08.321Z,98359.94
2023-04-11T14:10:13.078Z,98358.94
2023-04-11T14:12:14.531Z,98352.38
2023-04-11T14:14:16.050Z,98355.81
2023-04-11T14:16:17.807Z,98353.66
2023-04-11T14:18:21.201Z,98349.88
2023-04-11T14:20:24.074Z,98350.34
2023-04-11T14:22:26.497Z,98347.25
2023-04-11T14:24:31.234Z,98351.34
2023-04-11T14:26:33.032Z,98354.78
2023-04-11T14:28:34.877Z,98354.28
2023-04-11T14:30:36.828Z,98354.97
2023-04-11T14:32:41.820Z,98353.31
2023-04-11T14:34:43.422Z,98346.00
2023-04-11T14:36:45.050Z,98331.16
2023-04-11T14:38:46.629Z,98345.22
2023-04-11T14:40:50.852Z,98337.91
2023-04-11T14:42:52.341Z,98326.97
2023-04-11T14:44:54.542Z,98333.03
2023-04-11T14:46:56.770Z,98335.16
2023-04-11T14:48:58.262Z,98339.75
2023-04-11T14:51:03.089Z,98351.38
2023-04-11T14:53:04.650Z,98343.53
2023-04-11T14:55:06.987Z,98347.31
2023-04-11T14:57:09.843Z,98355.47
2023-04-11T14:59:14.348Z,98362.47
2023-04-11T15:01:20.115Z,98364.28
2023-04-11T15:03:21.726Z,98368.84
2023-04-11T15:05:26.548Z,98383.41
2023-04-11T15:07:28.148Z,98381.44
2023-04-11T15:09:29.591Z,98385.34
2023-04-11T15:11:31.528Z,98388.94
2023-04-11T15:13:36.031Z,98401.31
2023-04-11T15:15:39.618Z,98404.13
2023-04-11T15:17:50.124Z,98388.59
2023-04-11T15:19:53.948Z,98381.09
2023-04-11T15:22:04.966Z,98379.28
2023-04-11T15:24:16.175Z,98368.53
2023-04-11T15:26:17.771Z,98368.84
2023-04-11T15:28:19.630Z,98373.06
2023-04-11T15:30:21.086Z,98364.56
2023-04-11T15:32:24.684Z,98368.31
2023-04-11T15:34:26.672Z,98378.72
2023-04-11T15:36:30.906Z,98368.13
2023-04-11T15:38:32.538Z,98359.44
2023-04-11T15:40:34.378Z,98370.69
2023-04-11T15:42:37.702Z,98371.97
2023-04-11T15:44:41.304Z,98370.47
2023-04-11T15:46:43.008Z,98370.97
2023-04-11T15:48:48.030Z,98370.91
2023-04-11T15:50:50.794Z,98379.69
2023-04-11T15:52:57.874Z,98379.66
2023-04-11T15:55:00.243Z,98387.88
2023-04-11T15:57:02.417Z,98386.38
2023-04-11T15:59:04.281Z,98393.19
2023-04-11T16:01:06.824Z,98388.94
2023-04-11T16:03:10.745Z,98387.28
2023-04-11T16:05:14.115Z,98385.97
2023-04-11T16:07:21.971Z,98391.81
2023-04-11T16:09:23.781Z,98406.78
2023-04-11T16:11:25.331Z,98389.97
2023-04-11T16:13:26.815Z,98391.44
2023-04-11T16:15:28.477Z,98394.03
2023-04-11T16:17:29.958Z,98391.06
2023-04-11T16:19:31.435Z,98383.91
2023-04-11T16:21:35.772Z,98382.91
2023-04-11T16:23:37.382Z,98371.00
2023-04-11T16:25:40.054Z,98374.94
2023-04-11T16:27:41.807Z,98384.34
2023-04-11T16:29:43.294Z,98381.56
2023-04-11T16:31:44.970Z,98381.09
2023-04-11T16:33:46.592Z,98372.28
2023-04-11T16:35:48.197Z,98368.69
2023-04-11T16:37:49.714Z,98370.63
2023-04-11T16:39:51.742Z,98373.41
2023-04-11T16:41:57.293Z,98367.38
2023-04-11T16:43:59.068Z,98361.84
2023-04-11T16:46:00.736Z,98353.56
2023-04-11T16:48:02.491Z,98355.00
2023-04-11T16:50:05.679Z,98356.78
2023-04-11T16:52:07.210Z,98357.19
2023-04-11T16:54:13.394Z,98347.41
2023-04-11T16:56:14.884Z,98342.63
2023-04-11T16:58:19.676Z,98356.84
2023-04-11T17:00:25.375Z,98359.22
2023-04-11T17:02:28.817Z,98358.34
2023-04-11T17:04:30.468Z,98357.13
2023-04-11T17:06:32.593Z,98351.19
2023-04-11T17:08:34.311Z,98352.75
2023-04-11T17:10:40.307Z,98355.75
2023-04-11T17:12:43.573Z,98346.25
2023-04-11T17:14:45.690Z,98346.66
2023-04-11T17:16:47.688Z,98338.28
2023-04-11T17:18:49.236Z,98349.25
2023-04-11T17:20:52.713Z,98354.06
2023-04-11T17:22:54.280Z,98358.31
2023-04-11T17:24:55.730Z,98356.25
2023-04-11T17:27:00.947Z,98353.09
2023-04-11T17:29:05.600Z,98351.56
2023-04-11T17:31:26.151Z,98357.25
2023-04-11T17:33:27.789Z,98358.78
2023-04-11T17:35:33.885Z,98353.97
2023-04-11T17:37:37.055Z,98351.84
2023-04-11T17:39:42.179Z,98344.25
2023-04-11T17:41:45.352Z,98339.94
2023-04-11T17:43:46.949Z,98345.56
2023-04-11T17:45:55.649Z,98343.19
2023-04-11T17:47:58.030Z,98339.38
2023-04-11T17:50:09.680Z,98343.06
2023-04-11T17:52:11.177Z,98342.03
2023-04-11T17:54:17.219Z,98342.09
2023-04-11T17:56:21.696Z,98355.94
2023-04-11T17:58:23.265Z,98353.28
2023-04-11T18:00:26.323Z,98356.63
2023-04-11T18:02:29.303Z,98354.47
2023-04-11T18:04:32.972Z,98350.97
2023-04-11T18:06:35.435Z,98362.59
2023-04-11T18:08:50.477Z,98369.53
2023-04-11T18:10:52.877Z,98371.22
2023-04-11T18:12:56.834Z,98371.03
2023-04-11T18:14:58.300Z,98372.72
2023-04-11T18:17:00.316Z,98370.03
2023-04-11T18:19:01.774Z,98387.47
2023-04-11T18:21:07.892Z,98391.38
2023-04-11T18:23:09.628Z,98387.91
2023-04-11T18:25:11.711Z,98390.44
2023-04-11T18:27:13.137Z,98396.00
2023-04-11T18:29:14.726Z,98408.72
2023-04-11T18:31:16.880Z,98413.63
2023-04-11T18:33:19.617Z,98421.41
2023-04-11T18:35:23.798Z,98423.41
2023-04-11T18:37:28.401Z,98427.06
2023-04-11T18:39:30.144Z,98432.03
2023-04-11T18:41:31.684Z,98427.41
2023-04-11T18:43:33.673Z,98428.81
2023-04-11T18:45:35.597Z,98428.53
2023-04-11T18:47:38.155Z,98434.63
2023-04-11T18:49:41.209Z,98427.25
2023-04-11T18:51:42.755Z,98429.22
2023-04-11T18:53:45.008Z,98419.94
2023-04-11T18:55:47.114Z,98426.31
2023-04-11T18:57:53.567Z,98431.88
2023-04-11T19:00:01.060Z,98428.03
2023-04-11T19:02:04.870Z,98429.75
2023-04-11T19:04:07.615Z,98430.06
2023-04-11T19:06:14.483Z,98428.50
2023-04-11T19:08:16.107Z,98429.38
2023-04-11T19:10:22.533Z,98432.16
2023-04-11T19:12:23.999Z,98445.94
2023-04-11T19:14:25.732Z,98433.34
2023-04-11T19:16:27.347Z,98426.53
2023-04-11T19:18:28.847Z,98431.25
2023-04-11T19:20:30.445Z,98435.97
2023-04-11T19:22:32.560Z,98432.97
2023-04-11T19:24:40.943Z,98431.38
2023-04-11T19:26:44.855Z,98423.16
2023-04-11T19:28:48.166Z,98428.41
2023-04-11T19:30:49.697Z,98428.41
2023-04-11T19:32:51.318Z,98418.28
2023-04-11T19:34:52.833Z,98412.00
2023-04-11T19:36:54.589Z,98421.38
2023-04-11T19:38:56.504Z,98419.22
2023-04-11T19:40:57.937Z,98420.06
2023-04-11T19:43:02.558Z,98421.72
2023-04-11T19:45:05.124Z,98417.34
2023-04-11T19:47:09.200Z,98415.72
2023-04-11T19:49:11.065Z,98415.75
2023-04-11T19:51:13.788Z,98416.59
2023-04-11T19:53:16.942Z,98416.34
2023-04-11T19:55:18.584Z,98405.38
2023-04-11T19:57:20.940Z,98405.16
2023-04-11T19:59:25.423Z,98407.91
2023-04-11T20:01:28.473Z,98410.41
2023-04-11T20:03:30.919Z,98399.19
2023-04-11T20:05:32.996Z,98398.09
2023-04-11T20:07:34.685Z,98402.22
2023-04-11T20:09:36.633Z,98398.41
2023-04-11T20:11:41.464Z,98392.94
2023-04-11T20:13:43.065Z,98398.69
2023-04-11T20:15:44.869Z,98398.47
2023-04-11T20:17:46.966Z,98401.75
2023-04-11T20:19:52.395Z,98399.03
2023-04-11T20:21:58.483Z,98400.69
2023-04-11T20:24:00.239Z,98405.06
2023-04-11T20:26:01.857Z,98396.00
2023-04-11T20:28:03.329Z,98387.25
2023-04-11T20:30:10.407Z,98383.44
2023-04-11T20:32:12.076Z,98374.13
2023-04-11T20:34:16.572Z,98373.88
2023-04-11T20:36:18.046Z,98373.06
2023-04-11T20:38:23.156Z,98378.00
2023-04-11T20:40:24.720Z,98373.31
2023-04-11T20:42:30.693Z,98371.16
2023-04-11T20:44:34.748Z,98381.03
2023-04-11T20:46:39.866Z,98372.53
2023-04-11T20:48:42.584Z,98373.63
2023-04-11T20:50:47.054Z,98367.34
2023-04-11T20:52:53.329Z,98372.81
2023-04-11T20:54:57.713Z,98363.53
2023-04-11T20:56:59.260Z,98375.56
2023-04-11T20:59:02.346Z,98373.13
2023-04-11T21:01:03.951Z,98372.59
2023-04-11T21:03:06.489Z,98376.69
2023-04-11T21:05:09.342Z,98371.75
2023-04-11T21:07:11.024Z,98383.53
2023-04-11T21:09:12.907Z,98378.59
2023-04-11T21:11:18.666Z,98373.66
2023-04-11T21:13:20.145Z,98363.56
2023-04-11T21:15:21.742Z,98358.63
2023-04-11T21:17:23.329Z,98350.94
2023-04-11T21:19:27.991Z,98350.09
2023-04-11T21:21:29.487Z,98349.31
2023-04-11T21:23:31.144Z,98350.66
2023-04-11T21:25:32.594Z,98345.19
2023-04-11T21:27:34.228Z,98352.53
2023-04-11T21:29:35.849Z,98353.38
2023-04-11T21:31:37.628Z,98356.88
2023-04-11T21:33:39.176Z,98350.34
2023-04-11T21:35:40.674Z,98344.84
2023-04-11T21:37:42.284Z,98351.13
2023-04-11T21:39:44.259Z,98348.38
2023-04-11T21:41:45.768Z,98346.19
2023-04-11T21:43:47.977Z,98344.78
2023-04-11T21:45:49.440Z,98340.69
2023-04-11T21:47:51.606Z,98342.88
2023-04-11T21:49:53.157Z,98340.13
2023-04-11T21:51:54.772Z,98329.97
2023-04-11T21:53:59.315Z,98338.97
2023-04-11T21:56:02.960Z,98324.75
2023-04-11T21:58:04.514Z,98331.03
2023-04-11T22:00:08.378Z,98328.31
2023-04-11T22:02:19.031Z,98325.00
2023-04-11T22:04:20.872Z,98323.88
2023-04-11T22:06:24.255Z,98324.97
2023-04-11T22:08:29.219Z,98320.03
2023-04-11T22:10:41.224Z,98313.44
2023-04-11T22:12:48.893Z,98319.47
2023-04-11T22:14:52.741Z,98320.81
2023-04-11T22:16:58.170Z,98313.97
2023-04-11T22:19:00.607Z,98322.94
2023-04-11T22:21:03.199Z,98323.22
2023-04-11T22:23:06.194Z,98319.63
2023-04-11T22:25:09.007Z,98314.69
2023-04-11T22:27:10.503Z,98317.97
2023-04-11T22:29:13.955Z,98315.50
2023-04-11T22:31:15.600Z,98309.75
2023-04-11T22:33:17.175Z,98305.06
2023-04-11T22:35:18.768Z,98301.78
2023-04-11T22:37:20.355Z,98306.69
2023-04-11T22:39:25.559Z,98299.00
2023-04-11T22:41:27.067Z,98295.72
2023-04-11T22:43:28.590Z,98302.25
2023-04-11T22:45:32.551Z,98292.94
2023-04-11T22:47:34.527Z,98284.22
2023-04-11T22:49:40.687Z,98285.56
2023-04-11T22:51:43.326Z,98283.06
2023-04-11T22:53:50.328Z,98271.59
2023-04-11T22:55:51.855Z,98271.88
2023-04-11T22:57:53.635Z,98271.06
2023-04-11T22:59:58.558Z,98265.59
2023-04-11T23:02:00.180Z,98260.13
2023-04-11T23:04:01.941Z,98263.13
2023-04-11T23:06:03.949Z,98265.84
2023-04-11T23:08:09.807Z,98266.94
2023-04-11T23:10:15.371Z,98266.13
2023-04-11T23:12:17.034Z,98260.09
2023-04-11T23:14:20.899Z,98258.44
2023-04-11T23:16:25.317Z,98258.72
2023-04-11T23:18:27.271Z,98258.72
2023-04-11T23:20:28.750Z,98250.78
2023-04-11T23:22:32.675Z,98252.97
2023-04-11T23:24:34.455Z,98245.06
2023-04-11T23:26:36.188Z,98237.94
2023-04-11T23:28:38.720Z,98248.84
2023-04-11T23:30:40.468Z,98240.94
2023-04-11T23:32:42.904Z,98245.84
2023-04-11T23:34:47.009Z,98244.19
2023-04-11T23:36:50.054Z,98237.91
2023-04-11T23:38:51.878Z,98239.81
2023-04-11T23:40:56.872Z,98239.81
2023-04-11T23:43:01.217Z,98229.16
2023-04-11T23:45:03.007Z,98230.53
2023-04-11T23:47:04.589Z,98222.06
2023-04-11T23:49:08.013Z,98217.94
2023-04-11T23:51:09.475Z,98210.88
2023-04-11T23:53:11.458Z,98211.94
2023-04-11T23:55:13.408Z,98213.03
2023-04-11T23:57:14.897Z,98207.84
2023-04-11T23:59:16.663Z,98205.94
